createdAt,value
2023-02-07T00:01:37.103Z,12.25
2023-02-07T00:04:39.183Z,9.32
2023-02-07T00:07:41.726Z,6.03
2023-02-07T00:10:43.786Z,14.43
2023-02-07T00:13:46.324Z,8.25
2023-02-07T00:16:48.299Z,21.83
2023-02-07T00:19:50.427Z,22.20
2023-02-07T00:22:52.745Z,15.25
2023-02-07T00:25:54.735Z,11.68
2023-02-07T00:28:56.927Z,16.65
2023-02-07T00:31:58.996Z,17.65
2023-02-07T00:35:01.374Z,18.92
2023-02-07T00:38:03.603Z,15.33
2023-02-07T00:41:05.936Z,13.30
2023-02-07T00:44:08.083Z,12.05
2023-02-07T00:47:10.099Z,15.70
2023-02-07T00:50:13.431Z,14.73
2023-02-07T00:53:15.415Z,14.70
2023-02-07T00:56:17.800Z,14.10
2023-02-07T00:59:19.816Z,14.75
2023-02-07T01:02:21.809Z,15.98
2023-02-07T01:05:24.476Z,17.67
2023-02-07T01:08:26.551Z,15.57
2023-02-07T01:11:29.184Z,17.75
2023-02-07T01:14:31.805Z,15.15
2023-02-07T01:17:34.060Z,14.87
2023-02-07T01:20:36.636Z,19.02
2023-02-07T01:23:39.283Z,11.45
2023-02-07T01:26:41.915Z,18.55
2023-02-07T01:29:44.077Z,12.57
2023-02-07T01:32:46.120Z,23.40
2023-02-07T01:35:48.106Z,8.10
2023-02-07T01:38:51.731Z,27.90
2023-02-07T01:41:53.750Z,30.00
2023-02-07T01:44:59.447Z,26.38
2023-02-07T01:48:07.347Z,18.37
2023-02-07T01:51:09.363Z,18.65
2023-02-07T01:54:13.259Z,16.17
2023-02-07T01:57:17.057Z,3.53
2023-02-07T02:00:19.319Z,23.83
2023-02-07T02:03:21.758Z,21.00
2023-02-07T02:06:25.406Z,8.57
2023-02-07T02:09:27.507Z,23.10
2023-02-07T02:12:43.515Z,14.30
2023-02-07T02:15:56.167Z,15.88
2023-02-07T02:19:07.518Z,22.70
2023-02-07T02:22:12.891Z,14.48
2023-02-07T02:25:15.874Z,23.75
2023-02-07T02:28:17.848Z,39.42
2023-02-07T02:31:19.931Z,42.53
2023-02-07T02:34:33.148Z,48.45
2023-02-07T02:37:42.638Z,45.72
2023-02-07T02:40:50.750Z,37.53
2023-02-07T02:43:53.365Z,31.73
2023-02-07T02:46:57.460Z,29.45
2023-02-07T02:49:59.543Z,27.07
2023-02-07T02:53:01.595Z,9.65
2023-02-07T02:56:06.469Z,23.00
2023-02-07T02:59:12.857Z,6.47
2023-02-07T03:02:15.445Z,12.45
2023-02-07T03:05:18.031Z,28.35
2023-02-07T03:08:46.990Z,29.15
2023-02-07T03:11:53.970Z,23.40
2023-02-07T03:14:55.943Z,23.80
2023-02-07T03:18:01.662Z,25.40
2023-02-07T03:21:08.636Z,24.13
2023-02-07T03:24:13.989Z,33.72
2023-02-07T03:27:18.365Z,31.38
2023-02-07T03:30:21.800Z,25.35
2023-02-07T03:33:24.133Z,29.83
2023-02-07T03:36:31.309Z,15.60
2023-02-07T03:39:33.365Z,25.08
2023-02-07T03:42:35.399Z,36.67
2023-02-07T03:45:37.693Z,31.20
2023-02-07T03:48:39.835Z,25.95
2023-02-07T03:51:41.888Z,27.00
2023-02-07T03:54:43.985Z,23.77
2023-02-07T03:57:46.103Z,30.25
2023-02-07T04:00:48.127Z,14.15
2023-02-07T04:03:50.197Z,20.30
2023-02-07T04:06:52.330Z,28.15
2023-02-07T04:09:54.662Z,33.15
2023-02-07T04:12:56.683Z,36.30
2023-02-07T04:15:58.834Z,33.60
2023-02-07T04:19:00.906Z,19.13
2023-02-07T04:22:02.963Z,26.00
2023-02-07T04:25:05.192Z,32.20
2023-02-07T04:28:07.500Z,25.67
2023-02-07T04:31:09.609Z,31.65
2023-02-07T04:34:13.122Z,26.38
2023-02-07T04:37:15.165Z,25.05
2023-02-07T04:40:17.805Z,29.60
2023-02-07T04:43:19.882Z,31.10
2023-02-07T04:46:21.867Z,25.48
2023-02-07T04:49:23.935Z,24.63
2023-02-07T04:52:25.948Z,20.83
2023-02-07T04:55:28.067Z,26.58
2023-02-07T04:58:30.071Z,17.52
2023-02-07T05:01:32.340Z,30.77
2023-02-07T05:04:34.470Z,25.38
2023-02-07T05:07:36.707Z,21.35
2023-02-07T05:10:39.114Z,31.65
2023-02-07T05:13:41.115Z,21.47
2023-02-07T05:16:43.156Z,25.75
2023-02-07T05:19:45.301Z,23.42
2023-02-07T05:22:47.320Z,34.60
2023-02-07T05:25:49.580Z,29.05
2023-02-07T05:28:51.558Z,27.20
2023-02-07T05:32:11.879Z,25.05
2023-02-07T05:35:13.915Z,28.23
2023-02-07T05:38:17.098Z,33.28
2023-02-07T05:41:19.138Z,37.42
2023-02-07T05:44:21.139Z,38.43
2023-02-07T05:47:23.152Z,34.67
2023-02-07T05:50:25.238Z,33.90
2023-02-07T05:53:39.393Z,33.57
2023-02-07T05:56:41.423Z,38.38
2023-02-07T05:59:43.418Z,32.90
2023-02-07T06:02:45.763Z,34.13
2023-02-07T06:05:47.767Z,29.90
2023-02-07T06:08:49.786Z,26.65
2023-02-07T06:11:51.966Z,29.45
2023-02-07T06:14:54.015Z,31.30
2023-02-07T06:17:56.196Z,30.98
2023-02-07T06:20:58.233Z,21.25
2023-02-07T06:24:00.231Z,29.73
2023-02-07T06:27:02.370Z,24.85
2023-02-07T06:30:04.587Z,41.95
2023-02-07T06:33:06.828Z,41.92
2023-02-07T06:36:09.124Z,32.00
2023-02-07T06:39:11.554Z,45.58
2023-02-07T06:42:13.594Z,56.22
2023-02-07T06:45:16.029Z,56.70
2023-02-07T06:48:18.193Z,64.55
2023-02-07T06:51:20.293Z,37.47
2023-02-07T06:54:22.489Z,29.13
2023-02-07T06:57:24.600Z,48.25
2023-02-07T07:00:26.869Z,33.55
2023-02-07T07:03:29.617Z,40.65
2023-02-07T07:06:32.151Z,30.45
2023-02-07T07:09:35.118Z,27.45
2023-02-07T07:12:37.212Z,30.90
2023-02-07T07:15:39.512Z,49.67
2023-02-07T07:18:42.099Z,43.05
2023-02-07T07:21:44.239Z,46.75
2023-02-07T07:24:46.860Z,39.23
2023-02-07T07:27:49.148Z,41.08
2023-02-07T07:30:51.264Z,46.72
2023-02-07T07:33:54.810Z,39.63
2023-02-07T07:36:57.020Z,30.10
2023-02-07T07:39:59.613Z,36.15
2023-02-07T07:43:02.047Z,33.00
2023-02-07T07:46:18.886Z,51.93
2023-02-07T07:49:21.122Z,54.13
2023-02-07T07:52:23.254Z,60.95
2023-02-07T07:55:25.534Z,51.67
2023-02-07T07:58:29.027Z,60.28
2023-02-07T08:01:31.385Z,38.90
2023-02-07T08:04:34.353Z,40.17
2023-02-07T08:07:36.430Z,46.50
2023-02-07T08:10:39.128Z,44.67
2023-02-07T08:13:41.364Z,48.22
2023-02-07T08:16:43.493Z,38.13
2023-02-07T08:19:45.638Z,43.08
2023-02-07T08:22:47.791Z,34.20
2023-02-07T08:25:50.277Z,39.80
2023-02-07T08:28:52.537Z,36.05
2023-02-07T08:31:54.720Z,34.38
2023-02-07T08:34:56.855Z,31.98
2023-02-07T08:37:58.968Z,27.50
2023-02-07T08:41:01.430Z,39.40
2023-02-07T08:44:03.617Z,31.15
2023-02-07T08:47:05.793Z,28.17
2023-02-07T08:50:08.226Z,28.85
2023-02-07T08:53:10.473Z,23.88
2023-02-07T08:56:12.568Z,23.23
2023-02-07T08:59:14.657Z,21.65
2023-02-07T09:02:17.044Z,20.20
2023-02-07T09:05:19.362Z,19.17
2023-02-07T09:08:21.555Z,12.25
2023-02-07T09:11:23.898Z,26.67
2023-02-07T09:14:26.221Z,19.13
2023-02-07T09:17:28.265Z,25.77
2023-02-07T09:20:30.313Z,21.40
2023-02-07T09:23:33.725Z,26.38
2023-02-07T09:26:35.953Z,26.93
2023-02-07T09:29:38.232Z,36.95
2023-02-07T09:32:40.320Z,30.20
2023-02-07T09:35:44.179Z,31.90
2023-02-07T09:38:47.142Z,25.60
2023-02-07T09:41:58.506Z,31.33
2023-02-07T09:45:08.707Z,32.35
2023-02-07T09:48:19.893Z,19.60
2023-02-07T09:51:23.969Z,21.77
2023-02-07T09:54:29.231Z,27.67
2023-02-07T09:57:38.118Z,22.23
2023-02-07T10:00:41.106Z,16.80
2023-02-07T10:04:03.671Z,19.75
2023-02-07T10:07:07.650Z,20.67
2023-02-07T10:10:23.774Z,31.13
2023-02-07T10:13:28.787Z,17.95
2023-02-07T10:16:49.637Z,22.52
2023-02-07T10:20:13.105Z,14.13
2023-02-07T10:23:32.794Z,26.98
2023-02-07T10:26:38.255Z,17.75
2023-02-07T10:29:59.908Z,27.93
2023-02-07T10:33:29.039Z,12.88
2023-02-07T10:36:33.873Z,16.90
2023-02-07T10:39:40.554Z,18.20
2023-02-07T10:42:43.865Z,13.25
2023-02-07T10:45:49.879Z,22.10
2023-02-07T10:48:53.932Z,11.70
2023-02-07T10:51:57.738Z,11.47
2023-02-07T10:55:01.036Z,15.40
2023-02-07T10:58:17.850Z,15.38
2023-02-07T11:01:25.973Z,15.10
2023-02-07T11:04:34.897Z,11.52
2023-02-07T11:07:47.743Z,13.05
2023-02-07T11:10:51.368Z,17.40
2023-02-07T11:13:55.608Z,15.48
2023-02-07T11:16:58.629Z,11.30
2023-02-07T11:20:03.964Z,18.80
2023-02-07T11:23:14.703Z,16.47
2023-02-07T11:26:19.234Z,10.65
2023-02-07T11:29:22.683Z,8.15
2023-02-07T11:32:29.923Z,14.60
2023-02-07T11:35:32.684Z,16.83
2023-02-07T11:38:47.992Z,14.73
2023-02-07T11:41:56.057Z,25.27
2023-02-07T11:45:03.189Z,15.38
2023-02-07T11:48:06.356Z,18.17
2023-02-07T11:51:10.126Z,33.35
2023-02-07T11:54:14.076Z,24.97
2023-02-07T11:57:16.973Z,22.58
2023-02-07T12:00:22.309Z,11.70
2023-02-07T12:03:50.919Z,11.77
2023-02-07T12:06:57.644Z,16.60
2023-02-07T12:10:00.856Z,12.82
2023-02-07T12:13:14.644Z,10.82
2023-02-07T12:16:23.545Z,13.38
2023-02-07T12:19:33.318Z,14.17
2023-02-07T12:22:42.080Z,10.60
2023-02-07T12:25:50.215Z,10.48
2023-02-07T12:29:01.311Z,10.27
2023-02-07T12:32:16.696Z,10.48
2023-02-07T12:35:25.012Z,11.37
2023-02-07T12:38:37.867Z,14.68
2023-02-07T12:41:40.173Z,12.27
2023-02-07T12:44:52.175Z,12.23
2023-02-07T12:47:57.558Z,11.80
2023-02-07T12:51:24.560Z,7.73
2023-02-07T12:54:30.190Z,9.32
2023-02-07T12:57:32.317Z,15.50
2023-02-07T13:00:53.324Z,13.77
2023-02-07T13:04:01.997Z,12.20
2023-02-07T13:07:24.556Z,17.33
2023-02-07T13:10:36.706Z,12.05
2023-02-07T13:13:42.137Z,14.45
2023-02-07T13:16:44.576Z,14.52
2023-02-07T13:20:15.890Z,9.97
2023-02-07T13:23:19.522Z,14.50
2023-02-07T13:26:22.429Z,16.30
2023-02-07T13:29:25.100Z,16.07
2023-02-07T13:32:28.057Z,16.67
2023-02-07T13:35:32.868Z,21.63
2023-02-07T13:38:52.225Z,14.43
2023-02-07T13:42:08.678Z,15.13
2023-02-07T13:45:28.960Z,12.47
2023-02-07T13:48:46.341Z,10.63
2023-02-07T13:52:03.294Z,18.58
2023-02-07T13:55:11.338Z,10.63
2023-02-07T13:58:51.303Z,7.43
2023-02-07T14:01:54.682Z,10.95
2023-02-07T14:04:57.589Z,7.82
2023-02-07T14:07:59.707Z,10.83
2023-02-07T14:11:20.396Z,10.23
2023-02-07T14:14:28.166Z,11.38
2023-02-07T14:17:30.349Z,10.02
2023-02-07T14:20:38.500Z,11.07
2023-02-07T14:23:59.528Z,7.93
2023-02-07T14:27:02.194Z,9.50
2023-02-07T14:30:13.297Z,13.00
2023-02-07T14:33:33.970Z,13.98
2023-02-07T14:36:36.017Z,11.73
2023-02-07T14:39:38.216Z,10.30
2023-02-07T14:42:40.342Z,9.20
2023-02-07T14:45:51.372Z,13.95
2023-02-07T14:48:54.961Z,8.63
2023-02-07T14:52:12.259Z,10.63
2023-02-07T14:55:19.098Z,10.73
2023-02-07T14:58:27.888Z,11.32
2023-02-07T15:01:30.034Z,10.57
2023-02-07T15:04:35.024Z,13.32
2023-02-07T15:07:37.143Z,21.27
2023-02-07T15:10:54.275Z,10.10
2023-02-07T15:13:57.611Z,13.70
2023-02-07T15:17:00.719Z,12.00
2023-02-07T15:20:02.795Z,13.20
2023-02-07T15:23:07.542Z,10.40
2023-02-07T15:26:09.677Z,17.40
2023-02-07T15:29:20.299Z,14.18
2023-02-07T15:32:29.956Z,16.47
2023-02-07T15:35:37.230Z,17.88
2023-02-07T15:38:39.623Z,9.77
2023-02-07T15:41:41.817Z,14.23
2023-02-07T15:44:53.961Z,14.63
2023-02-07T15:47:57.094Z,21.33
2023-02-07T15:51:01.713Z,31.73
2023-02-07T15:54:03.806Z,39.28
2023-02-07T15:57:09.998Z,39.00
2023-02-07T16:00:22.957Z,39.25
2023-02-07T16:03:30.811Z,33.57
2023-02-07T16:06:33.174Z,33.53
2023-02-07T16:09:40.744Z,33.53
2023-02-07T16:12:44.616Z,32.87
2023-02-07T16:16:00.434Z,37.25
2023-02-07T16:19:14.748Z,43.83
2023-02-07T16:22:18.833Z,36.63
2023-02-07T16:25:23.012Z,36.90
2023-02-07T16:28:25.126Z,39.42
2023-02-07T16:31:27.398Z,61.22
2023-02-07T16:34:29.486Z,77.00
2023-02-07T16:37:31.639Z,69.32
2023-02-07T16:40:33.701Z,61.72
2023-02-07T16:43:37.520Z,60.00
2023-02-07T16:46:39.650Z,39.05
2023-02-07T16:49:43.891Z,47.15
2023-02-07T16:52:46.979Z,36.40
2023-02-07T16:55:49.083Z,30.30
2023-02-07T16:58:51.222Z,30.33
2023-02-07T17:01:54.197Z,42.30
2023-02-07T17:04:56.287Z,44.57
2023-02-07T17:07:58.326Z,51.75
2023-02-07T17:11:01.750Z,50.42
2023-02-07T17:14:03.862Z,46.70
2023-02-07T17:17:05.918Z,39.22
2023-02-07T17:20:27.127Z,33.45
2023-02-07T17:23:29.198Z,33.72
2023-02-07T17:26:32.048Z,42.00
2023-02-07T17:29:34.099Z,45.90
2023-02-07T17:32:36.115Z,59.00
2023-02-07T17:35:38.918Z,60.93
2023-02-07T17:38:41.267Z,42.65
2023-02-07T17:41:43.535Z,45.88
2023-02-07T17:44:45.582Z,51.00
2023-02-07T17:47:47.870Z,52.75
2023-02-07T17:50:49.976Z,61.15
2023-02-07T17:53:52.307Z,81.80
2023-02-07T17:56:55.708Z,78.25
2023-02-07T17:59:57.808Z,63.80
2023-02-07T18:03:00.083Z,48.47
2023-02-07T18:06:02.165Z,53.13
2023-02-07T18:09:04.219Z,55.08
2023-02-07T18:12:06.303Z,55.22
2023-02-07T18:15:09.169Z,49.00
2023-02-07T18:18:12.572Z,57.58
2023-02-07T18:21:14.648Z,57.88
2023-02-07T18:24:16.716Z,49.17
2023-02-07T18:27:18.766Z,62.13
2023-02-07T18:30:22.022Z,64.32
2023-02-07T18:33:24.011Z,76.35
2023-02-07T18:36:26.855Z,80.00
2023-02-07T18:39:28.905Z,116.78
2023-02-07T18:42:30.944Z,98.43
2023-02-07T18:45:35.523Z,78.40
2023-02-07T18:48:37.704Z,72.78
2023-02-07T18:51:39.785Z,38.08
2023-02-07T18:54:41.978Z,49.28
2023-02-07T18:57:44.025Z,49.88
2023-02-07T19:00:46.000Z,56.88
2023-02-07T19:03:51.467Z,55.90
2023-02-07T19:06:53.560Z,61.53
2023-02-07T19:09:55.629Z,65.95
2023-02-07T19:12:57.583Z,62.65
2023-02-07T19:16:04.045Z,78.83
2023-02-07T19:19:06.246Z,66.47
2023-02-07T19:22:08.267Z,72.30
2023-02-07T19:25:10.369Z,80.40
2023-02-07T19:28:12.799Z,80.85
2023-02-07T19:31:18.068Z,68.47
2023-02-07T19:34:20.301Z,74.50
2023-02-07T19:37:22.628Z,54.83
2023-02-07T19:40:24.653Z,66.63
2023-02-07T19:43:26.968Z,61.72
2023-02-07T19:46:29.174Z,81.57
2023-02-07T19:49:31.245Z,73.60
2023-02-07T19:52:33.373Z,78.97
2023-02-07T19:55:38.179Z,78.00
2023-02-07T19:58:42.051Z,99.40
2023-02-07T20:01:44.199Z,112.72
2023-02-07T20:04:46.212Z,101.15
2023-02-07T20:07:48.244Z,106.60
2023-02-07T20:10:50.316Z,115.97
2023-02-07T20:13:53.371Z,105.75
2023-02-07T20:16:55.443Z,102.73
2023-02-07T20:19:57.524Z,124.75
2023-02-07T20:22:59.569Z,117.80
2023-02-07T20:26:02.574Z,133.52
2023-02-07T20:29:06.852Z,119.22
2023-02-07T20:32:12.722Z,119.30
2023-02-07T20:35:14.843Z,105.95
2023-02-07T20:38:16.868Z,82.37
2023-02-07T20:41:29.907Z,93.68
2023-02-07T20:44:31.977Z,67.10
2023-02-07T20:47:34.018Z,59.53
2023-02-07T20:50:36.031Z,62.78
2023-02-07T20:53:39.081Z,66.82
2023-02-07T20:56:41.548Z,66.63
2023-02-07T20:59:43.552Z,69.50
2023-02-07T21:02:45.611Z,59.72
2023-02-07T21:05:47.642Z,58.17
2023-02-07T21:08:53.284Z,68.97
2023-02-07T21:11:55.626Z,78.35
2023-02-07T21:14:57.724Z,61.83
2023-02-07T21:17:59.834Z,59.43
2023-02-07T21:21:06.032Z,45.33
2023-02-07T21:24:08.284Z,55.83
2023-02-07T21:27:10.355Z,41.55
2023-02-07T21:30:12.666Z,38.20
2023-02-07T21:33:14.786Z,18.13
2023-02-07T21:36:18.953Z,23.35
2023-02-07T21:39:21.344Z,20.80
2023-02-07T21:42:23.359Z,27.02
2023-02-07T21:45:25.370Z,20.90
2023-02-07T21:48:27.389Z,15.47
2023-02-07T21:51:30.716Z,27.55
2023-02-07T21:54:34.246Z,28.23
2023-02-07T21:57:36.268Z,28.80
2023-02-07T22:00:38.582Z,32.85
2023-02-07T22:03:41.679Z,24.88
2023-02-07T22:06:44.579Z,9.52
2023-02-07T22:09:46.627Z,21.47
2023-02-07T22:12:48.611Z,31.83
2023-02-07T22:15:51.165Z,35.10
2023-02-07T22:18:53.542Z,36.33
2023-02-07T22:21:55.601Z,35.72
2023-02-07T22:24:57.638Z,47.20
2023-02-07T22:27:59.663Z,13.63
2023-02-07T22:31:01.837Z,35.03
2023-02-07T22:34:05.478Z,28.13
2023-02-07T22:37:07.709Z,27.25
2023-02-07T22:40:10.053Z,35.67
2023-02-07T22:43:13.319Z,32.65
2023-02-07T22:46:16.895Z,28.13
2023-02-07T22:49:19.302Z,36.10
2023-02-07T22:52:21.328Z,14.88
2023-02-07T22:55:23.330Z,21.73
2023-02-07T22:58:25.303Z,24.00
2023-02-07T23:01:34.507Z,28.15
2023-02-07T23:04:36.546Z,27.38
2023-02-07T23:07:38.586Z,14.50
2023-02-07T23:10:41.760Z,28.23
2023-02-07T23:13:44.154Z,23.50
2023-02-07T23:16:46.209Z,33.22
2023-02-07T23:19:48.234Z,36.87
2023-02-07T23:22:50.865Z,33.80
2023-02-07T23:25:52.883Z,34.00
2023-02-07T23:28:54.847Z,33.40
2023-02-07T23:31:56.959Z,28.05
2023-02-07T23:34:59.020Z,34.38
2023-02-07T23:38:01.586Z,25.83
2023-02-07T23:41:03.955Z,38.07
2023-02-07T23:44:05.970Z,30.42
2023-02-07T23:47:08.028Z,21.20
2023-02-07T23:50:10.012Z,26.90
2023-02-07T23:53:12.016Z,9.43
2023-02-07T23:56:15.410Z,19.98
2023-02-07T23:59:17.416Z,22.92
